createdAt,value
2023-05-06T00:00:01.958Z,3.65
2023-05-06T00:02:29.850Z,3.80
2023-05-06T00:04:56.587Z,3.63
2023-05-06T00:07:23.089Z,3.43
2023-05-06T00:09:49.532Z,3.00
2023-05-06T00:12:16.011Z,4.07
2023-05-06T00:14:42.450Z,3.75
2023-05-06T00:17:08.880Z,3.00
2023-05-06T00:19:36.697Z,3.30
2023-05-06T00:22:03.199Z,3.35
2023-05-06T00:24:29.607Z,3.67
2023-05-06T00:26:56.108Z,2.80
2023-05-06T00:29:22.559Z,2.97
2023-05-06T00:31:49.024Z,3.38
2023-05-06T00:34:15.490Z,3.38
2023-05-06T00:36:43.218Z,2.78
2023-05-06T00:39:09.666Z,2.60
2023-05-06T00:41:36.154Z,2.15
2023-05-06T00:44:02.601Z,2.30
2023-05-06T00:46:29.346Z,3.28
2023-05-06T00:48:55.892Z,2.70
2023-05-06T00:51:22.730Z,2.80
2023-05-06T00:53:50.819Z,3.13
2023-05-06T00:56:19.278Z,2.75
2023-05-06T00:58:47.837Z,2.88
2023-05-06T01:01:14.379Z,3.25
2023-05-06T01:03:40.864Z,3.13
2023-05-06T01:06:17.676Z,3.00
2023-05-06T01:08:51.278Z,3.67
2023-05-06T01:11:27.763Z,2.70
2023-05-06T01:14:00.593Z,2.53
2023-05-06T01:16:29.245Z,2.55
2023-05-06T01:18:58.733Z,2.55
2023-05-06T01:21:25.609Z,2.72
2023-05-06T01:23:55.350Z,2.67
2023-05-06T01:26:22.066Z,2.63
2023-05-06T01:28:48.686Z,2.78
2023-05-06T01:31:23.633Z,2.80
2023-05-06T01:33:58.927Z,2.92
2023-05-06T01:36:29.537Z,2.67
2023-05-06T01:39:01.310Z,2.70
2023-05-06T01:41:28.141Z,3.38
2023-05-06T01:43:56.029Z,3.40
2023-05-06T01:46:24.500Z,3.83
2023-05-06T01:48:54.974Z,3.20
2023-05-06T01:51:21.495Z,2.90
2023-05-06T01:53:47.928Z,3.10
2023-05-06T01:56:15.896Z,3.13
2023-05-06T01:58:42.454Z,3.30
2023-05-06T02:01:08.875Z,2.77
2023-05-06T02:03:35.392Z,2.65
2023-05-06T02:06:01.858Z,3.58
2023-05-06T02:08:28.316Z,3.05
2023-05-06T02:10:54.750Z,3.95
2023-05-06T02:13:22.569Z,2.60
2023-05-06T02:15:52.425Z,2.70
2023-05-06T02:18:18.876Z,2.83
2023-05-06T02:20:45.303Z,2.92
2023-05-06T02:23:11.759Z,3.42
2023-05-06T02:25:38.193Z,2.83
2023-05-06T02:28:04.662Z,3.15
2023-05-06T02:30:32.492Z,3.53
2023-05-06T02:32:59.015Z,3.45
2023-05-06T02:35:25.491Z,3.40
2023-05-06T02:37:51.922Z,2.95
2023-05-06T02:40:18.380Z,3.30
2023-05-06T02:42:44.906Z,2.88
2023-05-06T02:45:11.857Z,3.05
2023-05-06T02:47:39.798Z,3.30
2023-05-06T02:50:06.910Z,3.55
2023-05-06T02:52:33.357Z,4.30
2023-05-06T02:55:00.247Z,3.13
2023-05-06T02:57:26.649Z,4.10
2023-05-06T02:59:53.105Z,3.00
2023-05-06T03:02:19.506Z,3.80
2023-05-06T03:04:47.272Z,3.42
2023-05-06T03:07:13.744Z,3.50
2023-05-06T03:09:40.199Z,3.95
2023-05-06T03:12:06.770Z,3.70
2023-05-06T03:14:33.209Z,4.60
2023-05-06T03:16:59.747Z,3.85
2023-05-06T03:19:26.215Z,3.83
2023-05-06T03:21:53.997Z,3.92
2023-05-06T03:24:20.446Z,4.40
2023-05-06T03:26:46.868Z,6.28
2023-05-06T03:29:13.285Z,4.47
2023-05-06T03:31:39.802Z,4.57
2023-05-06T03:34:06.318Z,4.22
2023-05-06T03:36:32.875Z,5.00
2023-05-06T03:39:00.663Z,4.85
2023-05-06T03:41:27.357Z,4.55
2023-05-06T03:43:53.781Z,4.70
2023-05-06T03:46:20.243Z,5.03
2023-05-06T03:48:46.668Z,5.65
2023-05-06T03:51:13.428Z,4.97
2023-05-06T03:53:39.904Z,5.67
2023-05-06T03:56:08.074Z,5.63
2023-05-06T03:58:35.635Z,5.13
2023-05-06T04:01:02.117Z,5.68
2023-05-06T04:03:28.628Z,5.72
2023-05-06T04:05:55.175Z,5.68
2023-05-06T04:08:21.613Z,5.72
2023-05-06T04:10:48.042Z,5.97
2023-05-06T04:13:15.920Z,6.57
2023-05-06T04:15:42.457Z,6.90
2023-05-06T04:18:09.020Z,5.85
2023-05-06T04:20:35.516Z,7.28
2023-05-06T04:23:02.030Z,6.00
2023-05-06T04:25:28.506Z,6.40
2023-05-06T04:27:54.926Z,7.55
2023-05-06T04:30:22.770Z,6.15
2023-05-06T04:32:49.238Z,6.60
2023-05-06T04:35:15.794Z,7.38
2023-05-06T04:37:42.223Z,6.80
2023-05-06T04:40:09.590Z,7.30
2023-05-06T04:42:36.044Z,7.65
2023-05-06T04:45:02.496Z,7.15
2023-05-06T04:47:30.313Z,8.27
2023-05-06T04:49:56.760Z,7.22
2023-05-06T04:52:23.152Z,6.78
2023-05-06T04:54:49.555Z,7.05
2023-05-06T04:57:16.000Z,7.75
2023-05-06T04:59:42.458Z,7.13
2023-05-06T05:02:08.913Z,7.45
2023-05-06T05:04:36.713Z,6.65
2023-05-06T05:07:03.144Z,6.50
2023-05-06T05:09:29.594Z,5.68
2023-05-06T05:11:56.116Z,7.05
2023-05-06T05:14:22.507Z,6.15
2023-05-06T05:16:49.006Z,5.65
2023-05-06T05:19:15.448Z,6.15
2023-05-06T05:21:43.200Z,5.40
2023-05-06T05:24:09.630Z,5.38
2023-05-06T05:26:36.052Z,5.38
2023-05-06T05:29:02.510Z,5.10
2023-05-06T05:31:28.960Z,4.47
2023-05-06T05:33:55.499Z,4.82
2023-05-06T05:36:22.088Z,4.73
2023-05-06T05:38:50.070Z,4.03
2023-05-06T05:41:17.569Z,4.30
2023-05-06T05:43:44.194Z,4.15
2023-05-06T05:46:10.671Z,3.30
2023-05-06T05:48:37.120Z,3.28
2023-05-06T05:51:03.892Z,3.22
2023-05-06T05:53:30.318Z,3.17
2023-05-06T05:55:58.096Z,3.00
2023-05-06T05:58:24.697Z,2.95
2023-05-06T06:00:51.212Z,2.73
2023-05-06T06:03:17.850Z,2.80
2023-05-06T06:05:44.573Z,2.95
2023-05-06T06:08:11.069Z,2.57
2023-05-06T06:10:37.496Z,2.55
2023-05-06T06:13:05.303Z,3.03
2023-05-06T06:15:31.854Z,2.78
2023-05-06T06:17:58.332Z,2.70
2023-05-06T06:20:24.814Z,2.70
2023-05-06T06:22:51.213Z,2.85
2023-05-06T06:25:17.653Z,2.85
2023-05-06T06:27:44.078Z,2.30
2023-05-06T06:30:12.454Z,2.60
2023-05-06T06:32:48.640Z,2.30
2023-05-06T06:35:15.386Z,2.47
2023-05-06T06:37:41.908Z,2.63
2023-05-06T06:40:09.166Z,3.20
2023-05-06T06:42:35.735Z,2.53
2023-05-06T06:45:02.225Z,3.13
2023-05-06T06:47:30.073Z,2.15
2023-05-06T06:49:56.509Z,2.80
2023-05-06T06:52:22.926Z,2.50
2023-05-06T06:54:49.327Z,2.22
2023-05-06T06:57:15.762Z,2.20
2023-05-06T06:59:42.180Z,2.33
2023-05-06T07:02:08.574Z,2.55
2023-05-06T07:04:36.440Z,2.20
2023-05-06T07:07:02.899Z,2.72
2023-05-06T07:09:29.313Z,2.20
2023-05-06T07:11:55.742Z,1.95
2023-05-06T07:14:22.134Z,2.10
2023-05-06T07:16:50.772Z,2.30
2023-05-06T07:19:18.019Z,2.33
2023-05-06T07:21:45.780Z,2.30
2023-05-06T07:24:12.223Z,1.83
2023-05-06T07:26:39.793Z,2.53
2023-05-06T07:31:33.055Z,2.70
2023-05-06T07:33:59.725Z,1.83
2023-05-06T07:36:26.464Z,1.73
2023-05-06T07:38:54.333Z,1.80
2023-05-06T07:41:20.757Z,1.35
2023-05-06T07:43:47.175Z,1.13
2023-05-06T07:46:13.715Z,1.48
2023-05-06T07:48:40.224Z,1.53
2023-05-06T07:51:06.632Z,2.20
2023-05-06T07:53:33.042Z,2.10
2023-05-06T07:56:00.811Z,1.48
2023-05-06T07:58:27.295Z,2.00
2023-05-06T08:00:53.935Z,1.63
2023-05-06T08:03:20.491Z,1.90
2023-05-06T08:05:47.012Z,1.43
2023-05-06T08:08:13.455Z,2.15
2023-05-06T08:10:39.931Z,1.67
2023-05-06T08:13:07.852Z,1.23
2023-05-06T08:15:34.369Z,1.05
2023-05-06T08:18:13.721Z,1.20
2023-05-06T08:20:44.716Z,1.20
2023-05-06T08:23:11.279Z,1.87
2023-05-06T08:25:37.729Z,1.52
2023-05-06T08:28:04.188Z,1.15
2023-05-06T08:30:32.006Z,2.00
2023-05-06T08:32:58.460Z,1.50
2023-05-06T08:35:24.900Z,0.95
2023-05-06T08:37:51.330Z,1.25
2023-05-06T08:40:19.472Z,2.63
2023-05-06T08:42:46.232Z,1.40
2023-05-06T08:45:12.770Z,0.90
2023-05-06T08:47:41.475Z,0.93
2023-05-06T08:50:09.209Z,1.10
2023-05-06T08:52:36.072Z,1.13
2023-05-06T08:55:03.203Z,1.00
2023-05-06T08:57:30.763Z,1.00
2023-05-06T08:59:57.539Z,0.70
2023-05-06T09:02:24.615Z,1.00
2023-05-06T09:07:20.645Z,1.10
2023-05-06T09:09:47.341Z,1.20
2023-05-06T09:12:14.595Z,1.20
2023-05-06T09:14:41.296Z,1.33
2023-05-06T09:17:17.816Z,0.98
2023-05-06T09:19:44.298Z,0.80
2023-05-06T09:22:12.085Z,1.08
2023-05-06T09:24:38.826Z,0.80
2023-05-06T09:27:05.231Z,1.20
2023-05-06T09:29:31.768Z,1.02
2023-05-06T09:31:58.173Z,1.23
2023-05-06T09:34:24.620Z,1.23
2023-05-06T09:36:52.496Z,0.90
2023-05-06T09:39:25.400Z,0.90
2023-05-06T09:41:51.832Z,1.00
2023-05-06T09:44:18.272Z,1.00
2023-05-06T09:46:44.917Z,1.15
2023-05-06T09:49:12.053Z,0.85
2023-05-06T09:54:05.560Z,0.80
2023-05-06T09:56:34.212Z,0.80
2023-05-06T09:59:01.557Z,0.80
2023-05-06T10:01:36.581Z,0.75
2023-05-06T10:04:08.126Z,0.68
2023-05-06T10:06:36.330Z,0.98
2023-05-06T10:09:02.791Z,0.70
2023-05-06T10:11:30.452Z,0.90
2023-05-06T10:14:00.064Z,0.80
2023-05-06T10:16:27.280Z,1.00
2023-05-06T10:18:55.321Z,0.60
2023-05-06T10:21:25.059Z,1.15
2023-05-06T10:23:57.094Z,0.60
2023-05-06T10:26:25.241Z,0.90
2023-05-06T10:28:53.481Z,0.80
2023-05-06T10:31:21.326Z,1.02
2023-05-06T10:33:50.094Z,0.90
2023-05-06T10:36:19.828Z,1.20
2023-05-06T10:38:50.359Z,0.73
2023-05-06T10:41:17.749Z,0.65
2023-05-06T10:43:44.672Z,0.73
2023-05-06T10:49:00.561Z,1.77
2023-05-06T10:51:27.765Z,1.00
2023-05-06T10:53:59.107Z,2.03
2023-05-06T10:56:26.142Z,0.80
2023-05-06T11:01:21.843Z,1.80
2023-05-06T11:03:50.681Z,0.75
2023-05-06T11:06:32.582Z,0.80
2023-05-06T11:08:59.186Z,0.68
2023-05-06T11:11:58.725Z,1.00
2023-05-06T11:14:27.620Z,0.60
2023-05-06T11:16:55.548Z,0.57
2023-05-06T11:19:24.576Z,0.70
2023-05-06T11:21:52.031Z,0.70
2023-05-06T11:24:24.084Z,0.80
2023-05-06T11:26:50.830Z,0.80
2023-05-06T11:29:17.609Z,1.02
2023-05-06T11:31:44.884Z,1.00
2023-05-06T11:34:13.757Z,1.10
2023-05-06T11:36:49.368Z,0.80
2023-05-06T11:39:15.816Z,1.08
2023-05-06T11:41:42.269Z,1.08
2023-05-06T11:44:10.302Z,0.82
2023-05-06T11:46:38.534Z,0.93
2023-05-06T11:51:31.563Z,1.20
2023-05-06T11:54:07.905Z,0.82
2023-05-06T11:56:48.512Z,0.80
2023-05-06T11:59:15.229Z,0.80
2023-05-06T12:01:42.804Z,0.82
2023-05-06T12:04:10.171Z,0.80
2023-05-06T12:06:37.826Z,0.90
2023-05-06T12:09:07.655Z,0.70
2023-05-06T12:11:35.315Z,1.00
2023-05-06T12:14:03.060Z,1.10
2023-05-06T12:16:29.910Z,1.55
2023-05-06T12:18:56.571Z,1.45
2023-05-06T12:21:23.560Z,0.80
2023-05-06T12:23:54.020Z,1.05
2023-05-06T12:26:21.820Z,0.90
2023-05-06T12:29:05.060Z,0.85
2023-05-06T12:31:31.617Z,1.05
2023-05-06T12:33:59.816Z,1.27
2023-05-06T12:36:27.643Z,0.73
2023-05-06T12:38:55.797Z,0.90
2023-05-06T12:41:25.681Z,0.90
2023-05-06T12:43:52.117Z,0.90
2023-05-06T12:46:18.984Z,0.85
2023-05-06T12:49:01.850Z,1.40
2023-05-06T12:51:29.384Z,1.10
2023-05-06T12:53:55.878Z,0.80
2023-05-06T12:56:23.968Z,1.27
2023-05-06T12:59:00.538Z,1.17
2023-05-06T13:01:27.101Z,1.25
2023-05-06T13:03:55.278Z,0.90
2023-05-06T13:06:21.766Z,1.00
2023-05-06T13:08:48.178Z,1.20
2023-05-06T13:11:14.823Z,1.10
2023-05-06T13:13:42.593Z,1.00
2023-05-06T13:16:09.128Z,0.70
2023-05-06T13:18:35.665Z,0.73
2023-05-06T13:21:02.097Z,0.90
2023-05-06T13:23:28.512Z,1.40
2023-05-06T13:26:04.189Z,0.90
2023-05-06T13:28:32.892Z,1.20
2023-05-06T13:31:00.930Z,0.80
2023-05-06T13:33:27.498Z,1.10
2023-05-06T13:35:53.930Z,1.00
2023-05-06T13:38:20.385Z,1.27
2023-05-06T13:40:47.433Z,1.10
2023-05-06T13:43:13.874Z,0.77
2023-05-06T13:45:40.280Z,0.93
2023-05-06T13:48:08.092Z,1.10
2023-05-06T13:50:34.526Z,1.40
2023-05-06T13:53:00.939Z,1.30
2023-05-06T13:55:27.369Z,1.00
2023-05-06T13:57:53.790Z,1.27
2023-05-06T14:00:20.652Z,1.30
2023-05-06T14:02:47.100Z,1.27
2023-05-06T14:05:15.201Z,1.00
2023-05-06T14:07:41.773Z,1.10
2023-05-06T14:10:09.445Z,1.00
2023-05-06T14:12:35.867Z,1.35
2023-05-06T14:15:02.409Z,0.88
2023-05-06T14:17:28.865Z,1.13
2023-05-06T14:19:55.303Z,1.40
2023-05-06T14:22:23.071Z,0.90
2023-05-06T14:24:49.530Z,1.25
2023-05-06T14:27:16.157Z,1.10
2023-05-06T14:29:42.668Z,1.52
2023-05-06T14:32:09.142Z,1.08
2023-05-06T14:34:35.665Z,0.90
2023-05-06T14:37:02.144Z,1.10
2023-05-06T14:39:29.951Z,1.02
2023-05-06T14:41:56.415Z,1.67
2023-05-06T14:44:22.829Z,1.33
2023-05-06T14:46:49.363Z,1.10
2023-05-06T14:49:15.816Z,1.20
2023-05-06T14:51:42.634Z,1.67
2023-05-06T14:54:09.141Z,1.13
2023-05-06T14:56:37.193Z,1.00
2023-05-06T14:59:04.215Z,1.23
2023-05-06T15:01:30.808Z,1.38
2023-05-06T15:03:57.348Z,1.47
2023-05-06T15:06:23.858Z,1.37
2023-05-06T15:08:50.316Z,1.33
2023-05-06T15:11:16.893Z,1.40
2023-05-06T15:13:44.678Z,1.40
2023-05-06T15:16:11.601Z,1.92
2023-05-06T15:18:38.145Z,1.45
2023-05-06T15:21:04.612Z,1.20
2023-05-06T15:23:31.029Z,1.25
2023-05-06T15:25:57.424Z,1.35
2023-05-06T15:28:24.824Z,1.20
2023-05-06T15:33:19.018Z,1.30
2023-05-06T15:35:45.464Z,1.40
2023-05-06T15:38:11.977Z,1.27
2023-05-06T15:40:39.014Z,0.77
2023-05-06T15:43:05.552Z,1.35
2023-05-06T15:45:32.128Z,1.73
2023-05-06T15:47:59.963Z,1.00
2023-05-06T15:50:33.559Z,1.92
2023-05-06T15:53:00.700Z,1.40
2023-05-06T15:55:27.149Z,1.00
2023-05-06T15:57:53.664Z,1.77
2023-05-06T16:00:20.351Z,1.50
2023-05-06T16:02:46.943Z,1.30
2023-05-06T16:05:14.984Z,1.40
2023-05-06T16:07:41.562Z,1.17
2023-05-06T16:10:08.878Z,2.05
2023-05-06T16:15:02.009Z,1.10
2023-05-06T16:17:28.611Z,1.77
2023-05-06T16:19:55.055Z,1.27
2023-05-06T16:22:22.819Z,1.42
2023-05-06T16:24:49.300Z,1.27
2023-05-06T16:27:15.726Z,1.40
2023-05-06T16:29:42.177Z,1.40
2023-05-06T16:32:08.621Z,2.17
2023-05-06T16:34:35.056Z,2.25
2023-05-06T16:37:01.510Z,1.25
2023-05-06T16:39:29.287Z,1.25
2023-05-06T16:41:55.714Z,1.42
2023-05-06T16:44:22.089Z,1.33
2023-05-06T16:46:48.648Z,1.60
2023-05-06T16:49:15.099Z,1.20
2023-05-06T16:51:41.520Z,1.80
2023-05-06T16:54:07.931Z,1.60
2023-05-06T16:56:44.467Z,1.50
2023-05-06T16:59:18.917Z,1.40
2023-05-06T17:01:47.315Z,1.73
2023-05-06T17:04:13.740Z,2.53
2023-05-06T17:06:40.161Z,1.35
2023-05-06T17:09:06.570Z,2.30
2023-05-06T17:11:33.027Z,2.30
2023-05-06T17:14:00.769Z,1.45
2023-05-06T17:16:27.251Z,1.45
2023-05-06T17:18:53.661Z,1.92
2023-05-06T17:21:20.095Z,1.60
2023-05-06T17:23:46.526Z,1.80
2023-05-06T17:26:12.966Z,1.40
2023-05-06T17:28:39.564Z,1.48
2023-05-06T17:31:07.367Z,1.90
2023-05-06T17:33:33.804Z,1.50
2023-05-06T17:36:00.254Z,1.63
2023-05-06T17:38:26.709Z,1.50
2023-05-06T17:40:53.164Z,1.58
2023-05-06T17:43:19.570Z,2.10
2023-05-06T17:45:46.077Z,1.52
2023-05-06T17:48:13.929Z,1.60
2023-05-06T17:50:40.374Z,1.38
2023-05-06T17:53:06.820Z,1.30
2023-05-06T17:55:33.232Z,1.55
2023-05-06T17:57:59.790Z,1.55
2023-05-06T18:00:26.241Z,1.50
2023-05-06T18:02:52.816Z,1.38
2023-05-06T18:05:20.924Z,1.97
2023-05-06T18:07:47.343Z,1.92
2023-05-06T18:10:13.793Z,1.30
2023-05-06T18:12:40.243Z,1.70
2023-05-06T18:15:08.142Z,1.30
2023-05-06T18:17:34.806Z,1.30
2023-05-06T18:20:01.335Z,1.55
2023-05-06T18:22:29.335Z,1.50
2023-05-06T18:24:55.775Z,1.40
2023-05-06T18:27:22.346Z,1.42
2023-05-06T18:29:48.750Z,1.57
2023-05-06T18:32:15.233Z,1.20
2023-05-06T18:34:41.731Z,1.50
2023-05-06T18:37:08.210Z,1.75
2023-05-06T18:39:39.557Z,1.85
2023-05-06T18:42:06.049Z,1.52
2023-05-06T18:44:32.436Z,1.60
2023-05-06T18:46:58.896Z,1.65
2023-05-06T18:49:25.336Z,1.30
2023-05-06T18:51:51.739Z,1.60
2023-05-06T18:54:18.179Z,1.55
2023-05-06T18:56:46.026Z,1.80
2023-05-06T18:59:12.640Z,1.65
2023-05-06T19:01:39.396Z,1.73
2023-05-06T19:04:06.051Z,1.73
2023-05-06T19:06:32.624Z,1.75
2023-05-06T19:08:59.048Z,1.90
2023-05-06T19:11:25.507Z,1.42
2023-05-06T19:13:53.278Z,1.67
2023-05-06T19:16:19.764Z,1.85
2023-05-06T19:18:46.200Z,1.90
2023-05-06T19:21:12.715Z,2.15
2023-05-06T19:23:39.382Z,1.85
2023-05-06T19:26:06.762Z,1.90
2023-05-06T19:28:33.480Z,1.83
2023-05-06T19:31:01.673Z,1.70
2023-05-06T19:33:28.238Z,1.88
2023-05-06T19:35:54.733Z,1.70
2023-05-06T19:38:21.139Z,2.10
2023-05-06T19:40:47.576Z,1.60
2023-05-06T19:43:13.979Z,2.10
2023-05-06T19:45:40.390Z,1.80
2023-05-06T19:48:08.243Z,1.67
2023-05-06T19:50:34.681Z,2.42
2023-05-06T19:53:01.292Z,1.60
2023-05-06T19:55:27.717Z,1.70
2023-05-06T19:57:55.728Z,1.80
2023-05-06T20:00:22.609Z,2.10
2023-05-06T20:02:49.114Z,2.15
2023-05-06T20:05:16.960Z,1.58
2023-05-06T20:07:43.409Z,1.90
2023-05-06T20:10:10.197Z,2.08
2023-05-06T20:12:36.790Z,1.83
2023-05-06T20:15:03.736Z,2.33
2023-05-06T20:17:30.221Z,1.90
2023-05-06T20:19:56.678Z,2.00
2023-05-06T20:22:24.467Z,1.98
2023-05-06T20:24:50.880Z,1.92
2023-05-06T20:27:17.359Z,2.10
2023-05-06T20:29:43.780Z,2.22
2023-05-06T20:32:10.227Z,1.92
2023-05-06T20:34:36.686Z,2.13
2023-05-06T20:37:03.316Z,2.28
2023-05-06T20:39:31.085Z,1.98
2023-05-06T20:41:57.523Z,1.90
2023-05-06T20:44:23.957Z,2.58
2023-05-06T20:46:50.416Z,2.42
2023-05-06T20:49:16.818Z,2.25
2023-05-06T20:51:43.239Z,1.88
2023-05-06T20:54:09.656Z,2.63
2023-05-06T20:56:37.423Z,2.53
2023-05-06T20:59:03.882Z,2.22
2023-05-06T21:01:30.328Z,2.60
2023-05-06T21:03:56.889Z,2.72
2023-05-06T21:06:23.333Z,2.70
2023-05-06T21:08:49.780Z,2.58
2023-05-06T21:11:16.202Z,2.58
2023-05-06T21:13:43.974Z,2.58
2023-05-06T21:16:10.394Z,3.00
2023-05-06T21:18:36.867Z,2.92
2023-05-06T21:21:03.635Z,2.63
2023-05-06T21:23:30.090Z,2.83
2023-05-06T21:25:56.520Z,2.85
2023-05-06T21:28:23.459Z,2.47
2023-05-06T21:30:51.311Z,3.00
2023-05-06T21:33:17.752Z,2.60
2023-05-06T21:35:44.209Z,2.60
2023-05-06T21:38:10.669Z,2.97
2023-05-06T21:40:37.124Z,3.05
2023-05-06T21:43:03.605Z,3.20
2023-05-06T21:45:30.037Z,3.38
2023-05-06T21:47:57.863Z,3.13
2023-05-06T21:50:24.353Z,3.28
2023-05-06T21:52:50.787Z,3.30
2023-05-06T21:55:17.222Z,2.70
2023-05-06T21:57:44.665Z,4.15
2023-05-06T22:00:13.141Z,3.33
2023-05-06T22:02:40.230Z,4.22
2023-05-06T22:05:08.745Z,3.05
2023-05-06T22:07:35.743Z,3.42
2023-05-06T22:10:02.368Z,3.55
2023-05-06T22:12:28.957Z,2.92
2023-05-06T22:14:55.362Z,3.03
2023-05-06T22:17:21.839Z,3.13
2023-05-06T22:19:48.283Z,3.03
2023-05-06T22:22:17.466Z,2.92
2023-05-06T22:24:44.128Z,3.17
2023-05-06T22:27:10.753Z,3.17
2023-05-06T22:29:37.223Z,3.03
2023-05-06T22:32:03.934Z,2.60
2023-05-06T22:34:30.472Z,2.97
2023-05-06T22:36:58.221Z,4.13
2023-05-06T22:39:27.658Z,2.53
2023-05-06T22:41:54.112Z,2.80
2023-05-06T22:44:20.542Z,2.65
2023-05-06T22:46:46.990Z,2.95
2023-05-06T22:49:13.441Z,3.17
2023-05-06T22:51:40.232Z,3.10
2023-05-06T22:54:06.627Z,2.92
2023-05-06T22:56:34.424Z,3.13
2023-05-06T22:59:00.851Z,3.00
2023-05-06T23:01:27.445Z,2.80
2023-05-06T23:03:53.884Z,3.00
2023-05-06T23:06:20.431Z,2.85
2023-05-06T23:08:46.889Z,3.08
2023-05-06T23:11:13.296Z,2.80
2023-05-06T23:13:41.086Z,3.17
2023-05-06T23:16:07.663Z,3.03
2023-05-06T23:18:34.118Z,2.88
2023-05-06T23:21:00.549Z,3.08
2023-05-06T23:23:27.002Z,3.03
2023-05-06T23:25:53.405Z,3.03
2023-05-06T23:28:19.865Z,2.90
2023-05-06T23:30:47.672Z,3.40
2023-05-06T23:33:14.291Z,3.25
2023-05-06T23:35:40.740Z,3.67
2023-05-06T23:38:07.347Z,3.75
2023-05-06T23:40:33.813Z,3.50
2023-05-06T23:43:00.243Z,2.83
2023-05-06T23:45:26.675Z,3.10
2023-05-06T23:47:54.550Z,3.70
2023-05-06T23:50:21.171Z,3.22
2023-05-06T23:52:47.571Z,3.37
2023-05-06T23:55:14.270Z,3.75
2023-05-06T23:57:40.884Z,3.30
